CheckWX is a tool to help pilots better visualize weather data.  It is not intended as a substitute for an official pre-flight weather briefing.

09:31:03 UTC

KSTK METAR
Sterling Municipal Airport
Sterling, Colorado, USA
Current

11 mins ago

KSTK 220920Z AUTO 32007KT 10SM SCT100 01/00 A2956 RMK AO2
Observed
May-22 @ 09:20 UTC
Wind
  • 320° at 7 KTS
Visibility
10 SM
Flight Rules
VFR
Cloud Levels
  • Scattered at 10,000' AGL
Temperature
C / 34°F
Dewpoint
C / 32°F
Humidity
93%
Altimeter
29.56" Hg
Pressure
1001.02 hPa
Previous

31 mins ago

KSTK 220900Z AUTO 32008KT 10SM SCT100 01/01 A2956 RMK AO2
Observed
May-22 @ 09:00 UTC
Wind
  • 320° at 8 KTS
Visibility
10 SM
Flight Rules
VFR
Cloud Levels
  • Scattered at 10,000' AGL
Temperature
C / 34°F
Dewpoint
C / 34°F
Humidity
100%
Altimeter
29.56" Hg
Pressure
1001.02 hPa
Previous

51 mins ago

KSTK 220840Z AUTO 31008KT 10SM CLR 01/01 A2957 RMK AO2
Observed
May-22 @ 08:40 UTC
Wind
  • 310° at 8 KTS
Visibility
10 SM
Flight Rules
VFR
Cloud Levels
  • Clear skies
Temperature
C / 34°F
Dewpoint
C / 34°F
Humidity
100%
Altimeter
29.57" Hg
Pressure
1001.32 hPa